Houlton International, ME

4:15 AM EDT on March 27, 2015 (GMT -0400)
Caribou Municipal | | Change Station
CLOSE
Current Station
Airport
Location: Caribou,
Elevation: 623 ft
Nearby Weather Stations

Elev 623 ft 46.87 °N, 68.02 °W | Updated 21 minutes ago

Overcast
Overcast
32 °F
Feels Like 29 °F
N
4
Wind Variable Wind from NE

Today
High -- | Low -- °F
--% Chance of Precip.
Yesterday
High -- | Low -- °F
Precip. -- in
6:21 AM 6:52 PM
Waxing Crescent, 50% visible
Pressure 29.62 in
Visibility 10.0 miles
Clouds Overcast 6000 ft
Windchill 29 °F
Dew Point 27 °F
Humidity 82%
Rainfall 0.00 in
Snow Depth Not available.
UV 0 out of 12
Pollen 2.50 out of 12
Air Quality Not available.
Flu Activity Not available.
METAR KCAR 270754Z AUTO 05003KT 10SM OVC060 00/M03 A2959 RMK AO2 SLP028 T00001028 $

More Conditions Fewer Conditions

Pressure 29.62 in
Visibility 10.0 miles
Clouds Overcast 6000 ft
Windchill 29 °F
Dew Point 27 °F
Humidity 82%
Rainfall 0.00 in
Snow Depth Not available.
UV 0 out of 12
Pollen 2.50 out of 12
Air Quality Not available.
Flu Activity Not available.
METAR KCAR 270754Z AUTO 05003KT 10SM OVC060 00/M03 A2959 RMK AO2 SLP028 T00001028 $

More Conditions Fewer Conditions

10-Day Weather Forecast

Almanac

Astronomy

Mar. 27, 2015 Rise Set
Actual Time
Civil Twilight
Nautical Twilight
Astronomical Twilight
Moon
Length of Visible Light
Length of Day
Tomorrow will be .
, % of the Moon is Illuminated

Today's Extremes

State Highs State Lows

Community

WunderPhotos

Upload Photos

1,808,705 photos uploaded!

WunderBlogs® & News

Nearby

Air Quality

  Air Quality AQ Index Pollutant
Not available.

Snow Depth

Station Depth Elevation

Earthquake Activity

City Distance Mag. Time & Date
Minimum magnitude displayed is 2.5.

Coastal Water Temperatures

Place Temperature

Stations

Nearby Weather Stations

Station Location Temp. Windchill Dew Point Humidity Wind Precip. Elev Updated Type